sensor_id;sensor_type;location;lat;lon;timestamp;pressure;altitude;pressure_sealevel;temperature;humidity
77192;BME280;66172;48.526;8.078;2024-03-02T00:02:13;98410.34;;;4.56;81.49
77192;BME280;66172;48.526;8.078;2024-03-02T00:04:39;98416.25;;;4.40;82.64
77192;BME280;66172;48.526;8.078;2024-03-02T00:07:06;98410.00;;;4.28;83.09
77192;BME280;66172;48.526;8.078;2024-03-02T00:09:33;98408.34;;;4.44;82.10
77192;BME280;66172;48.526;8.078;2024-03-02T00:12:00;98417.63;;;4.55;81.88
77192;BME280;66172;48.526;8.078;2024-03-02T00:14:29;98415.97;;;4.42;81.62
77192;BME280;66172;48.526;8.078;2024-03-02T00:16:55;98412.00;;;4.39;81.68
77192;BME280;66172;48.526;8.078;2024-03-02T00:19:21;98407.69;;;4.47;81.76
77192;BME280;66172;48.526;8.078;2024-03-02T00:21:47;98417.19;;;4.44;81.61
77192;BME280;66172;48.526;8.078;2024-03-02T00:24:45;98404.84;;;4.43;81.47
77192;BME280;66172;48.526;8.078;2024-03-02T00:27:12;98418.44;;;4.56;80.04
77192;BME280;66172;48.526;8.078;2024-03-02T00:29:41;98413.34;;;4.54;80.49
77192;BME280;66172;48.526;8.078;2024-03-02T00:32:12;98417.19;;;4.53;79.71
77192;BME280;66172;48.526;8.078;2024-03-02T00:34:39;98412.94;;;4.43;79.98
77192;BME280;66172;48.526;8.078;2024-03-02T00:37:05;98414.91;;;4.64;78.96
77192;BME280;66172;48.526;8.078;2024-03-02T00:39:31;98417.88;;;4.33;79.95
77192;BME280;66172;48.526;8.078;2024-03-02T00:41:58;98415.81;;;4.38;79.98
77192;BME280;66172;48.526;8.078;2024-03-02T00:44:25;98420.19;;;4.51;79.48
77192;BME280;66172;48.526;8.078;2024-03-02T00:46:52;98417.41;;;4.69;78.65
77192;BME280;66172;48.526;8.078;2024-03-02T00:49:21;98416.47;;;4.65;78.35
77192;BME280;66172;48.526;8.078;2024-03-02T00:51:49;98416.47;;;4.65;78.63
77192;BME280;66172;48.526;8.078;2024-03-02T00:54:19;98418.28;;;4.52;79.29
77192;BME280;66172;48.526;8.078;2024-03-02T00:56:47;98421.78;;;4.44;79.17
77192;BME280;66172;48.526;8.078;2024-03-02T00:59:13;98426.53;;;4.47;78.98
77192;BME280;66172;48.526;8.078;2024-03-02T01:01:39;98417.97;;;4.53;78.77
77192;BME280;66172;48.526;8.078;2024-03-02T01:04:04;98415.00;;;4.46;79.36
77192;BME280;66172;48.526;8.078;2024-03-02T01:06:30;98412.69;;;4.28;80.43
77192;BME280;66172;48.526;8.078;2024-03-02T01:08:56;98415.72;;;4.18;80.90
77192;BME280;66172;48.526;8.078;2024-03-02T01:11:22;98410.66;;;4.16;81.20
77192;BME280;66172;48.526;8.078;2024-03-02T01:13:48;98413.84;;;4.18;80.86
77192;BME280;66172;48.526;8.078;2024-03-02T01:16:14;98417.78;;;4.12;81.25
77192;BME280;66172;48.526;8.078;2024-03-02T01:18:41;98415.34;;;3.90;82.44
77192;BME280;66172;48.526;8.078;2024-03-02T01:21:07;98413.06;;;4.09;81.87
77192;BME280;66172;48.526;8.078;2024-03-02T01:23:33;98413.97;;;4.22;81.22
77192;BME280;66172;48.526;8.078;2024-03-02T01:25:59;98418.56;;;4.21;81.15
77192;BME280;66172;48.526;8.078;2024-03-02T01:28:25;98412.84;;;4.23;80.92
77192;BME280;66172;48.526;8.078;2024-03-02T01:30:51;98407.53;;;4.06;81.57
77192;BME280;66172;48.526;8.078;2024-03-02T01:33:17;98411.19;;;4.01;82.05
77192;BME280;66172;48.526;8.078;2024-03-02T01:35:44;98410.66;;;4.16;80.88
77192;BME280;66172;48.526;8.078;2024-03-02T01:38:10;98406.13;;;4.08;81.40
77192;BME280;66172;48.526;8.078;2024-03-02T01:40:36;98411.22;;;3.92;82.35
77192;BME280;66172;48.526;8.078;2024-03-02T01:43:04;98407.22;;;4.07;81.46
77192;BME280;66172;48.526;8.078;2024-03-02T01:45:30;98401.94;;;4.19;80.91
77192;BME280;66172;48.526;8.078;2024-03-02T01:47:56;98410.44;;;4.30;80.19
77192;BME280;66172;48.526;8.078;2024-03-02T01:50:32;98405.63;;;4.15;81.13
77192;BME280;66172;48.526;8.078;2024-03-02T01:52:59;98407.75;;;4.30;80.60
77192;BME280;66172;48.526;8.078;2024-03-02T01:55:25;98407.91;;;4.33;80.00
77192;BME280;66172;48.526;8.078;2024-03-02T01:57:52;98409.47;;;4.43;79.64
77192;BME280;66172;48.526;8.078;2024-03-02T02:00:20;98407.41;;;4.40;79.64
77192;BME280;66172;48.526;8.078;2024-03-02T02:02:47;98407.19;;;4.16;80.60
77192;BME280;66172;48.526;8.078;2024-03-02T02:05:13;98402.50;;;3.95;82.06
77192;BME280;66172;48.526;8.078;2024-03-02T02:07:43;98398.84;;;4.00;81.43
77192;BME280;66172;48.526;8.078;2024-03-02T02:10:09;98399.09;;;3.61;83.14
77192;BME280;66172;48.526;8.078;2024-03-02T02:12:35;98398.09;;;3.74;83.22
77192;BME280;66172;48.526;8.078;2024-03-02T02:15:03;98390.00;;;3.91;82.57
77192;BME280;66172;48.526;8.078;2024-03-02T02:17:28;98395.53;;;4.03;81.32
77192;BME280;66172;48.526;8.078;2024-03-02T02:19:54;98396.47;;;3.98;81.72
77192;BME280;66172;48.526;8.078;2024-03-02T02:22:20;98395.03;;;4.10;81.67
77192;BME280;66172;48.526;8.078;2024-03-02T02:24:46;98384.44;;;4.05;81.58
77192;BME280;66172;48.526;8.078;2024-03-02T02:27:12;98379.09;;;3.87;82.04
77192;BME280;66172;48.526;8.078;2024-03-02T02:29:41;98376.25;;;4.01;81.78
77192;BME280;66172;48.526;8.078;2024-03-02T02:32:07;98369.38;;;4.12;81.37
77192;BME280;66172;48.526;8.078;2024-03-02T02:34:33;98367.97;;;4.06;81.56
77192;BME280;66172;48.526;8.078;2024-03-02T02:36:59;98364.28;;;4.19;80.98
77192;BME280;66172;48.526;8.078;2024-03-02T02:39:25;98363.38;;;4.07;80.88
77192;BME280;66172;48.526;8.078;2024-03-02T02:41:51;98368.59;;;4.12;81.10
77192;BME280;66172;48.526;8.078;2024-03-02T02:44:17;98363.47;;;4.19;80.47
77192;BME280;66172;48.526;8.078;2024-03-02T02:46:43;98359.75;;;4.11;80.82
77192;BME280;66172;48.526;8.078;2024-03-02T02:49:09;98360.38;;;4.08;81.04
77192;BME280;66172;48.526;8.078;2024-03-02T02:51:35;98356.25;;;4.11;80.57
77192;BME280;66172;48.526;8.078;2024-03-02T02:54:01;98366.88;;;4.07;81.27
77192;BME280;66172;48.526;8.078;2024-03-02T02:56:26;98344.72;;;4.10;81.03
77192;BME280;66172;48.526;8.078;2024-03-02T02:58:52;98354.38;;;4.11;80.92
77192;BME280;66172;48.526;8.078;2024-03-02T03:01:18;98352.84;;;3.84;82.01
77192;BME280;66172;48.526;8.078;2024-03-02T03:03:45;98357.59;;;3.87;82.18
77192;BME280;66172;48.526;8.078;2024-03-02T03:06:11;98352.50;;;3.94;81.91
77192;BME280;66172;48.526;8.078;2024-03-02T03:08:37;98354.44;;;3.94;81.81
77192;BME280;66172;48.526;8.078;2024-03-02T03:11:04;98356.47;;;3.97;81.47
77192;BME280;66172;48.526;8.078;2024-03-02T03:13:31;98345.88;;;3.92;81.58
77192;BME280;66172;48.526;8.078;2024-03-02T03:15:57;98342.38;;;4.00;81.46
77192;BME280;66172;48.526;8.078;2024-03-02T03:18:23;98343.91;;;4.10;80.67
77192;BME280;66172;48.526;8.078;2024-03-02T03:20:49;98348.78;;;3.70;82.09
77192;BME280;66172;48.526;8.078;2024-03-02T03:23:15;98347.47;;;3.93;81.79
77192;BME280;66172;48.526;8.078;2024-03-02T03:25:43;98332.50;;;3.75;82.59
77192;BME280;66172;48.526;8.078;2024-03-02T03:28:09;98338.16;;;3.82;82.45
77192;BME280;66172;48.526;8.078;2024-03-02T03:30:38;98340.84;;;3.90;81.94
77192;BME280;66172;48.526;8.078;2024-03-02T03:33:05;98339.41;;;3.93;82.11
77192;BME280;66172;48.526;8.078;2024-03-02T03:35:32;98338.09;;;3.99;81.67
77192;BME280;66172;48.526;8.078;2024-03-02T03:37:58;98332.88;;;4.02;81.62
77192;BME280;66172;48.526;8.078;2024-03-02T03:40:24;98343.25;;;3.75;82.30
77192;BME280;66172;48.526;8.078;2024-03-02T03:42:50;98337.72;;;3.80;83.01
77192;BME280;66172;48.526;8.078;2024-03-02T03:45:16;98332.63;;;3.78;82.57
77192;BME280;66172;48.526;8.078;2024-03-02T03:47:42;98333.28;;;3.67;83.77
77192;BME280;66172;48.526;8.078;2024-03-02T03:50:08;98331.84;;;3.78;82.91
77192;BME280;66172;48.526;8.078;2024-03-02T03:52:34;98332.00;;;3.81;82.47
77192;BME280;66172;48.526;8.078;2024-03-02T03:55:00;98331.88;;;3.69;82.78
77192;BME280;66172;48.526;8.078;2024-03-02T03:57:26;98337.66;;;3.88;82.36
77192;BME280;66172;48.526;8.078;2024-03-02T03:59:52;98341.16;;;3.80;82.47
77192;BME280;66172;48.526;8.078;2024-03-02T04:02:18;98345.09;;;3.91;82.52
77192;BME280;66172;48.526;8.078;2024-03-02T04:04:44;98350.16;;;3.84;82.62
77192;BME280;66172;48.526;8.078;2024-03-02T04:07:10;98351.44;;;3.87;82.61
77192;BME280;66172;48.526;8.078;2024-03-02T04:09:36;98355.72;;;3.79;82.62
77192;BME280;66172;48.526;8.078;2024-03-02T04:12:02;98354.13;;;3.87;81.97
77192;BME280;66172;48.526;8.078;2024-03-02T04:14:28;98348.13;;;3.90;82.13
77192;BME280;66172;48.526;8.078;2024-03-02T04:16:54;98352.03;;;3.92;82.38
77192;BME280;66172;48.526;8.078;2024-03-02T04:19:19;98358.06;;;3.89;81.82
77192;BME280;66172;48.526;8.078;2024-03-02T04:21:45;98360.47;;;3.82;83.00
77192;BME280;66172;48.526;8.078;2024-03-02T04:24:11;98354.94;;;3.79;83.00
77192;BME280;66172;48.526;8.078;2024-03-02T04:26:37;98350.16;;;3.84;82.61
77192;BME280;66172;48.526;8.078;2024-03-02T04:29:03;98355.03;;;3.91;81.91
77192;BME280;66172;48.526;8.078;2024-03-02T04:31:29;98351.75;;;3.85;82.33
77192;BME280;66172;48.526;8.078;2024-03-02T04:33:55;98363.31;;;3.86;82.48
77192;BME280;66172;48.526;8.078;2024-03-02T04:36:20;98368.16;;;4.01;81.79
77192;BME280;66172;48.526;8.078;2024-03-02T04:38:49;98369.72;;;4.02;81.69
77192;BME280;66172;48.526;8.078;2024-03-02T04:41:15;98366.59;;;4.00;81.54
77192;BME280;66172;48.526;8.078;2024-03-02T04:43:41;98376.09;;;3.97;81.36
77192;BME280;66172;48.526;8.078;2024-03-02T04:46:07;98371.38;;;3.86;81.78
77192;BME280;66172;48.526;8.078;2024-03-02T04:48:33;98367.56;;;3.87;81.97
77192;BME280;66172;48.526;8.078;2024-03-02T04:50:59;98369.78;;;3.93;81.85
77192;BME280;66172;48.526;8.078;2024-03-02T04:53:25;98366.94;;;3.81;82.46
77192;BME280;66172;48.526;8.078;2024-03-02T04:55:51;98377.66;;;3.98;82.05
77192;BME280;66172;48.526;8.078;2024-03-02T04:58:19;98368.81;;;3.89;81.76
77192;BME280;66172;48.526;8.078;2024-03-02T05:00:45;98369.00;;;3.84;82.43
77192;BME280;66172;48.526;8.078;2024-03-02T05:03:12;98381.63;;;3.84;82.06
77192;BME280;66172;48.526;8.078;2024-03-02T05:05:39;98367.22;;;3.97;82.02
77192;BME280;66172;48.526;8.078;2024-03-02T05:08:05;98374.22;;;3.89;82.11
77192;BME280;66172;48.526;8.078;2024-03-02T05:10:30;98376.84;;;3.98;81.83
77192;BME280;66172;48.526;8.078;2024-03-02T05:12:56;98380.53;;;3.85;82.02
77192;BME280;66172;48.526;8.078;2024-03-02T05:15:24;98372.66;;;3.71;82.94
77192;BME280;66172;48.526;8.078;2024-03-02T05:17:50;98375.66;;;3.70;82.94
77192;BME280;66172;48.526;8.078;2024-03-02T05:20:16;98371.22;;;3.74;83.04
77192;BME280;66172;48.526;8.078;2024-03-02T05:22:42;98380.72;;;3.71;82.90
77192;BME280;66172;48.526;8.078;2024-03-02T05:25:09;98368.09;;;3.72;83.13
77192;BME280;66172;48.526;8.078;2024-03-02T05:27:37;98382.94;;;3.78;82.86
77192;BME280;66172;48.526;8.078;2024-03-02T05:30:04;98369.97;;;3.71;83.03
77192;BME280;66172;48.526;8.078;2024-03-02T05:32:32;98373.94;;;3.57;83.83
77192;BME280;66172;48.526;8.078;2024-03-02T05:34:58;98372.22;;;3.52;83.92
77192;BME280;66172;48.526;8.078;2024-03-02T05:37:24;98365.25;;;3.68;83.70
77192;BME280;66172;48.526;8.078;2024-03-02T05:39:50;98361.91;;;3.71;83.16
77192;BME280;66172;48.526;8.078;2024-03-02T05:42:15;98363.69;;;3.59;83.74
77192;BME280;66172;48.526;8.078;2024-03-02T05:44:42;98376.00;;;3.68;83.23
77192;BME280;66172;48.526;8.078;2024-03-02T05:47:08;98381.06;;;3.61;83.95
77192;BME280;66172;48.526;8.078;2024-03-02T05:49:35;98370.63;;;3.60;83.78
77192;BME280;66172;48.526;8.078;2024-03-02T05:52:00;98375.03;;;3.56;83.84
77192;BME280;66172;48.526;8.078;2024-03-02T05:54:26;98380.59;;;3.50;84.79
77192;BME280;66172;48.526;8.078;2024-03-02T05:56:52;98384.53;;;3.62;84.15
77192;BME280;66172;48.526;8.078;2024-03-02T05:59:18;98386.44;;;3.61;84.02
77192;BME280;66172;48.526;8.078;2024-03-02T06:01:47;98373.47;;;3.72;83.61
77192;BME280;66172;48.526;8.078;2024-03-02T06:04:14;98381.66;;;3.75;83.54
77192;BME280;66172;48.526;8.078;2024-03-02T06:06:40;98387.50;;;3.77;83.23
77192;BME280;66172;48.526;8.078;2024-03-02T06:09:06;98386.06;;;3.88;82.88
77192;BME280;66172;48.526;8.078;2024-03-02T06:11:39;98384.03;;;3.85;82.92
77192;BME280;66172;48.526;8.078;2024-03-02T06:14:06;98383.81;;;3.99;82.46
77192;BME280;66172;48.526;8.078;2024-03-02T06:16:32;98377.50;;;3.95;82.85
77192;BME280;66172;48.526;8.078;2024-03-02T06:18:58;98379.38;;;4.03;82.30
77192;BME280;66172;48.526;8.078;2024-03-02T06:21:24;98383.31;;;4.06;82.05
77192;BME280;66172;48.526;8.078;2024-03-02T06:23:51;98383.19;;;4.02;82.15
77192;BME280;66172;48.526;8.078;2024-03-02T06:26:17;98384.44;;;4.05;82.31
77192;BME280;66172;48.526;8.078;2024-03-02T06:28:43;98389.34;;;4.11;82.02
77192;BME280;66172;48.526;8.078;2024-03-02T06:31:09;98389.88;;;4.34;81.12
77192;BME280;66172;48.526;8.078;2024-03-02T06:33:35;98387.81;;;4.39;80.61
77192;BME280;66172;48.526;8.078;2024-03-02T06:36:01;98384.75;;;4.49;79.93
77192;BME280;66172;48.526;8.078;2024-03-02T06:38:28;98381.75;;;4.42;80.29
77192;BME280;66172;48.526;8.078;2024-03-02T06:40:54;98387.09;;;4.13;81.51
77192;BME280;66172;48.526;8.078;2024-03-02T06:43:21;98381.97;;;4.29;80.66
77192;BME280;66172;48.526;8.078;2024-03-02T06:45:50;98381.47;;;4.35;80.82
77192;BME280;66172;48.526;8.078;2024-03-02T06:48:17;98375.38;;;4.47;80.21
77192;BME280;66172;48.526;8.078;2024-03-02T06:50:46;98384.41;;;4.51;80.20
77192;BME280;66172;48.526;8.078;2024-03-02T06:53:13;98366.50;;;4.55;79.64
77192;BME280;66172;48.526;8.078;2024-03-02T06:55:39;98368.91;;;4.48;80.27
77192;BME280;66172;48.526;8.078;2024-03-02T06:58:05;98374.66;;;4.67;79.61
77192;BME280;66172;48.526;8.078;2024-03-02T07:00:31;98366.22;;;4.98;78.76
77192;BME280;66172;48.526;8.078;2024-03-02T07:02:57;98371.69;;;5.10;78.42
77192;BME280;66172;48.526;8.078;2024-03-02T07:05:23;98370.75;;;6.25;73.54
77192;BME280;66172;48.526;8.078;2024-03-02T07:07:49;98370.56;;;7.46;69.20
77192;BME280;66172;48.526;8.078;2024-03-02T07:10:15;98376.25;;;8.28;65.37
77192;BME280;66172;48.526;8.078;2024-03-02T07:12:41;98368.56;;;8.46;64.48
77192;BME280;66172;48.526;8.078;2024-03-02T07:15:07;98375.75;;;9.43;61.26
77192;BME280;66172;48.526;8.078;2024-03-02T07:17:33;98375.28;;;10.40;57.76
77192;BME280;66172;48.526;8.078;2024-03-02T07:19:59;98373.94;;;11.06;55.29
77192;BME280;66172;48.526;8.078;2024-03-02T07:22:25;98376.13;;;10.44;56.47
77192;BME280;66172;48.526;8.078;2024-03-02T07:24:51;98378.22;;;10.55;56.36
77192;BME280;66172;48.526;8.078;2024-03-02T07:27:17;98375.19;;;11.42;55.02
77192;BME280;66172;48.526;8.078;2024-03-02T07:29:43;98377.34;;;12.29;52.70
77192;BME280;66172;48.526;8.078;2024-03-02T07:32:10;98377.22;;;12.59;51.18
77192;BME280;66172;48.526;8.078;2024-03-02T07:34:36;98379.84;;;12.99;50.15
77192;BME280;66172;48.526;8.078;2024-03-02T07:37:03;98363.91;;;13.01;49.05
77192;BME280;66172;48.526;8.078;2024-03-02T07:39:30;98372.44;;;12.96;49.60
77192;BME280;66172;48.526;8.078;2024-03-02T07:41:56;98368.47;;;12.87;49.81
77192;BME280;66172;48.526;8.078;2024-03-02T07:44:22;98372.63;;;12.70;50.09
77192;BME280;66172;48.526;8.078;2024-03-02T07:46:48;98383.22;;;12.79;49.93
77192;BME280;66172;48.526;8.078;2024-03-02T07:49:18;98387.78;;;12.20;51.85
77192;BME280;66172;48.526;8.078;2024-03-02T07:51:44;98376.13;;;12.23;51.66
77192;BME280;66172;48.526;8.078;2024-03-02T07:54:10;98361.44;;;12.35;51.90
77192;BME280;66172;48.526;8.078;2024-03-02T07:56:36;98374.50;;;12.15;51.76
77192;BME280;66172;48.526;8.078;2024-03-02T07:59:03;98369.09;;;12.63;51.75
77192;BME280;66172;48.526;8.078;2024-03-02T08:01:30;98377.72;;;12.72;51.20
77192;BME280;66172;48.526;8.078;2024-03-02T08:04:00;98376.00;;;13.08;50.22
77192;BME280;66172;48.526;8.078;2024-03-02T08:06:27;98372.44;;;12.96;50.11
77192;BME280;66172;48.526;8.078;2024-03-02T08:08:54;98371.81;;;13.21;50.13
77192;BME280;66172;48.526;8.078;2024-03-02T08:11:20;98363.66;;;13.28;49.85
77192;BME280;66172;48.526;8.078;2024-03-02T08:13:47;98369.97;;;13.42;48.97
77192;BME280;66172;48.526;8.078;2024-03-02T08:16:14;98373.47;;;13.36;49.70
77192;BME280;66172;48.526;8.078;2024-03-02T08:18:40;98363.78;;;13.56;50.09
77192;BME280;66172;48.526;8.078;2024-03-02T08:21:06;98369.34;;;13.77;49.70
77192;BME280;66172;48.526;8.078;2024-03-02T08:23:34;98358.09;;;13.96;48.64
77192;BME280;66172;48.526;8.078;2024-03-02T08:26:00;98360.03;;;13.96;48.31
77192;BME280;66172;48.526;8.078;2024-03-02T08:28:26;98358.81;;;13.90;49.26
77192;BME280;66172;48.526;8.078;2024-03-02T08:30:52;98359.28;;;14.10;48.67
77192;BME280;66172;48.526;8.078;2024-03-02T08:33:18;98355.31;;;13.86;49.27
77192;BME280;66172;48.526;8.078;2024-03-02T08:35:44;98354.88;;;13.77;48.79
77192;BME280;66172;48.526;8.078;2024-03-02T08:38:10;98360.44;;;14.19;48.05
77192;BME280;66172;48.526;8.078;2024-03-02T08:40:36;98364.75;;;14.17;48.06
77192;BME280;66172;48.526;8.078;2024-03-02T08:43:02;98363.19;;;14.16;48.69
77192;BME280;66172;48.526;8.078;2024-03-02T08:45:27;98353.88;;;14.34;48.00
77192;BME280;66172;48.526;8.078;2024-03-02T08:47:53;98357.66;;;13.84;49.00
77192;BME280;66172;48.526;8.078;2024-03-02T08:50:19;98354.19;;;14.08;48.82
77192;BME280;66172;48.526;8.078;2024-03-02T08:52:45;98350.72;;;14.50;47.63
77192;BME280;66172;48.526;8.078;2024-03-02T08:55:11;98349.53;;;14.86;47.04
77192;BME280;66172;48.526;8.078;2024-03-02T08:57:37;98352.66;;;14.85;46.39
77192;BME280;66172;48.526;8.078;2024-03-02T09:00:03;98347.97;;;14.75;47.05
77192;BME280;66172;48.526;8.078;2024-03-02T09:02:30;98347.94;;;14.99;47.04
77192;BME280;66172;48.526;8.078;2024-03-02T09:04:57;98336.13;;;15.31;46.26
77192;BME280;66172;48.526;8.078;2024-03-02T09:07:23;98347.50;;;15.22;45.66
77192;BME280;66172;48.526;8.078;2024-03-02T09:09:49;98342.75;;;15.51;45.84
77192;BME280;66172;48.526;8.078;2024-03-02T09:12:15;98346.06;;;15.90;45.67
77192;BME280;66172;48.526;8.078;2024-03-02T09:14:41;98347.69;;;16.43;45.07
77192;BME280;66172;48.526;8.078;2024-03-02T09:17:07;98343.63;;;16.07;43.39
77192;BME280;66172;48.526;8.078;2024-03-02T09:19:34;98349.13;;;16.62;42.77
77192;BME280;66172;48.526;8.078;2024-03-02T09:21:59;98340.59;;;16.93;42.03
77192;BME280;66172;48.526;8.078;2024-03-02T09:24:27;98347.03;;;16.25;43.87
77192;BME280;66172;48.526;8.078;2024-03-02T09:26:54;98348.66;;;16.70;42.43
77192;BME280;66172;48.526;8.078;2024-03-02T09:29:20;98340.00;;;17.46;41.38
77192;BME280;66172;48.526;8.078;2024-03-02T09:31:46;98332.31;;;17.34;41.92
77192;BME280;66172;48.526;8.078;2024-03-02T09:34:12;98330.22;;;18.06;40.06
77192;BME280;66172;48.526;8.078;2024-03-02T09:36:39;98341.72;;;18.51;39.27
77192;BME280;66172;48.526;8.078;2024-03-02T09:39:07;98330.38;;;17.65;38.92
77192;BME280;66172;48.526;8.078;2024-03-02T09:41:36;98325.13;;;18.31;38.56
77192;BME280;66172;48.526;8.078;2024-03-02T09:44:02;98340.03;;;19.04;36.31
77192;BME280;66172;48.526;8.078;2024-03-02T09:46:28;98333.78;;;19.23;38.58
77192;BME280;66172;48.526;8.078;2024-03-02T09:48:54;98330.69;;;19.80;35.58
77192;BME280;66172;48.526;8.078;2024-03-02T09:51:20;98322.97;;;20.23;35.09
77192;BME280;66172;48.526;8.078;2024-03-02T09:53:47;98326.28;;;20.34;34.37
77192;BME280;66172;48.526;8.078;2024-03-02T09:56:14;98314.50;;;20.95;34.48
77192;BME280;66172;48.526;8.078;2024-03-02T09:58:41;98307.47;;;20.78;33.31
77192;BME280;66172;48.526;8.078;2024-03-02T10:01:08;98316.84;;;21.13;34.65
77192;BME280;66172;48.526;8.078;2024-03-02T10:03:37;98324.41;;;21.66;34.67
77192;BME280;66172;48.526;8.078;2024-03-02T10:06:38;98319.59;;;19.44;34.52
77192;BME280;66172;48.526;8.078;2024-03-02T10:09:04;98306.00;;;20.25;35.33
77192;BME280;66172;48.526;8.078;2024-03-02T10:11:31;98307.84;;;20.31;33.04
77192;BME280;66172;48.526;8.078;2024-03-02T10:14:08;98300.09;;;20.07;33.57
77192;BME280;66172;48.526;8.078;2024-03-02T10:16:36;98302.50;;;21.30;32.94
77192;BME280;66172;48.526;8.078;2024-03-02T10:19:21;98302.06;;;20.87;33.76
77192;BME280;66172;48.526;8.078;2024-03-02T10:21:51;98303.59;;;21.62;32.44
77192;BME280;66172;48.526;8.078;2024-03-02T10:24:19;98302.78;;;21.49;31.77
77192;BME280;66172;48.526;8.078;2024-03-02T10:26:45;98296.31;;;21.80;31.71
77192;BME280;66172;48.526;8.078;2024-03-02T10:29:11;98298.22;;;22.34;31.38
77192;BME280;66172;48.526;8.078;2024-03-02T10:31:38;98295.16;;;22.79;30.47
77192;BME280;66172;48.526;8.078;2024-03-02T10:34:05;98298.47;;;20.09;32.67
77192;BME280;66172;48.526;8.078;2024-03-02T10:36:35;98300.34;;;19.40;34.90
77192;BME280;66172;48.526;8.078;2024-03-02T10:39:04;98290.88;;;20.13;33.05
77192;BME280;66172;48.526;8.078;2024-03-02T10:41:33;98286.19;;;20.91;32.35
77192;BME280;66172;48.526;8.078;2024-03-02T10:44:02;98289.47;;;19.33;34.53
77192;BME280;66172;48.526;8.078;2024-03-02T10:46:30;98284.59;;;20.45;34.06
77192;BME280;66172;48.526;8.078;2024-03-02T10:48:57;98277.56;;;19.76;33.72
77192;BME280;66172;48.526;8.078;2024-03-02T10:51:25;98275.25;;;20.07;33.35
77192;BME280;66172;48.526;8.078;2024-03-02T10:53:52;98268.19;;;19.54;34.03
77192;BME280;66172;48.526;8.078;2024-03-02T10:56:27;98268.19;;;20.06;34.11
77192;BME280;66172;48.526;8.078;2024-03-02T10:59:01;98269.78;;;20.84;32.85
77192;BME280;66172;48.526;8.078;2024-03-02T11:01:29;98264.91;;;20.59;33.23
77192;BME280;66172;48.526;8.078;2024-03-02T11:03:58;98251.75;;;21.08;32.82
77192;BME280;66172;48.526;8.078;2024-03-02T11:06:26;98256.03;;;21.25;32.13
77192;BME280;66172;48.526;8.078;2024-03-02T11:08:54;98259.75;;;20.90;32.25
77192;BME280;66172;48.526;8.078;2024-03-02T11:11:29;98251.75;;;20.79;31.89
77192;BME280;66172;48.526;8.078;2024-03-02T11:14:01;98249.28;;;21.14;31.64
77192;BME280;66172;48.526;8.078;2024-03-02T11:16:35;98244.47;;;21.56;32.33
77192;BME280;66172;48.526;8.078;2024-03-02T11:19:04;98238.50;;;21.82;32.08
77192;BME280;66172;48.526;8.078;2024-03-02T11:21:32;98244.94;;;21.92;31.59
77192;BME280;66172;48.526;8.078;2024-03-02T11:23:59;98249.56;;;21.57;31.29
77192;BME280;66172;48.526;8.078;2024-03-02T11:26:25;98249.81;;;19.83;33.16
77192;BME280;66172;48.526;8.078;2024-03-02T11:28:52;98245.13;;;21.06;32.67
77192;BME280;66172;48.526;8.078;2024-03-02T11:31:18;98246.47;;;21.42;31.79
77192;BME280;66172;48.526;8.078;2024-03-02T11:33:45;98240.63;;;21.12;32.14
77192;BME280;66172;48.526;8.078;2024-03-02T11:36:10;98245.13;;;21.47;31.61
77192;BME280;66172;48.526;8.078;2024-03-02T11:38:37;98243.69;;;20.24;32.94
77192;BME280;66172;48.526;8.078;2024-03-02T11:41:06;98235.88;;;19.70;34.09
77192;BME280;66172;48.526;8.078;2024-03-02T11:43:38;98241.34;;;18.99;34.61
77192;BME280;66172;48.526;8.078;2024-03-02T11:46:10;98242.75;;;17.67;37.03
77192;BME280;66172;48.526;8.078;2024-03-02T11:48:36;98239.41;;;18.06;36.55
77192;BME280;66172;48.526;8.078;2024-03-02T11:51:05;98235.00;;;18.59;35.89
77192;BME280;66172;48.526;8.078;2024-03-02T11:53:31;98226.31;;;19.39;34.66
77192;BME280;66172;48.526;8.078;2024-03-02T11:55:59;98225.91;;;19.76;34.05
77192;BME280;66172;48.526;8.078;2024-03-02T11:58:24;98221.25;;;19.37;34.26
77192;BME280;66172;48.526;8.078;2024-03-02T12:00:53;98210.91;;;19.77;34.13
77192;BME280;66172;48.526;8.078;2024-03-02T12:03:22;98214.31;;;20.33;33.26
77192;BME280;66172;48.526;8.078;2024-03-02T12:05:50;98202.44;;;19.32;34.86
77192;BME280;66172;48.526;8.078;2024-03-02T12:08:16;98196.88;;;19.16;34.50
77192;BME280;66172;48.526;8.078;2024-03-02T12:10:42;98193.97;;;19.23;35.27
77192;BME280;66172;48.526;8.078;2024-03-02T12:13:10;98188.50;;;19.75;34.47
77192;BME280;66172;48.526;8.078;2024-03-02T12:15:38;98196.09;;;18.33;36.12
77192;BME280;66172;48.526;8.078;2024-03-02T12:18:05;98195.34;;;18.76;35.75
77192;BME280;66172;48.526;8.078;2024-03-02T12:20:32;98195.84;;;18.71;34.95
77192;BME280;66172;48.526;8.078;2024-03-02T12:23:01;98192.19;;;18.11;35.94
77192;BME280;66172;48.526;8.078;2024-03-02T12:25:28;98187.59;;;18.71;35.46
77192;BME280;66172;48.526;8.078;2024-03-02T12:27:55;98176.09;;;19.12;35.14
77192;BME280;66172;48.526;8.078;2024-03-02T12:30:21;98180.09;;;19.47;34.29
77192;BME280;66172;48.526;8.078;2024-03-02T12:32:48;98176.13;;;18.53;35.77
77192;BME280;66172;48.526;8.078;2024-03-02T12:35:15;98172.81;;;18.38;34.99
77192;BME280;66172;48.526;8.078;2024-03-02T12:37:44;98167.69;;;18.17;35.84
77192;BME280;66172;48.526;8.078;2024-03-02T12:40:11;98159.97;;;18.74;34.86
77192;BME280;66172;48.526;8.078;2024-03-02T12:42:38;98165.09;;;18.53;34.72
77192;BME280;66172;48.526;8.078;2024-03-02T12:45:06;98155.97;;;18.36;35.72
77192;BME280;66172;48.526;8.078;2024-03-02T12:47:33;98154.03;;;18.95;34.12
77192;BME280;66172;48.526;8.078;2024-03-02T12:49:59;98155.06;;;19.02;34.35
77192;BME280;66172;48.526;8.078;2024-03-02T12:52:25;98152.41;;;18.78;35.07
77192;BME280;66172;48.526;8.078;2024-03-02T12:54:51;98151.34;;;18.53;34.33
77192;BME280;66172;48.526;8.078;2024-03-02T12:57:18;98153.34;;;18.29;35.24
77192;BME280;66172;48.526;8.078;2024-03-02T12:59:47;98144.44;;;18.64;34.97
77192;BME280;66172;48.526;8.078;2024-03-02T13:02:19;98146.19;;;17.88;35.88
77192;BME280;66172;48.526;8.078;2024-03-02T13:07:48;98135.66;;;18.69;34.98